Time;durP1;ratioP1;P1;durP2;ratioP2;P2;SDS_P1;SDS_P2;PMS_P1;PMS_P2;Temp;Humidity;BMP_temperature;BMP_pressure;BME280_temperature;BME280_humidity;BME280_pressure;Samples;Min_cycle;Max_cycle;Signal;HPM_P1;HPM_P2
2024/02/11 00:00:43;;;;;;;1.77;1.25;;;;;;;14.65;61.55;97922.56;4225850;33;33827;-81
2024/02/11 00:03:12;;;;;;;0.30;0.30;;;;;;;14.41;62.02;97912.28;4204149;33;34051;-81
2024/02/11 00:05:40;;;;;;;1.45;1.08;;;;;;;14.44;61.70;97912.84;4220150;33;34656;-82
2024/02/11 00:08:08;;;;;;;0.40;0.10;;;;;;;14.34;62.65;97906.69;4204129;33;33862;-81
2024/02/11 00:10:36;;;;;;;0.28;0.28;;;;;;;14.50;62.29;97907.00;4237006;33;34355;-80
2024/02/11 00:13:04;;;;;;;0.00;0.00;;;;;;;14.63;61.71;97906.75;4212755;33;32331;-80
2024/02/11 00:15:31;;;;;;;1.75;1.15;;;;;;;14.70;61.57;97909.69;4226565;33;33791;-80
2024/02/11 00:18:00;;;;;;;1.98;1.10;;;;;;;14.70;61.54;97904.37;4214118;33;33821;-80
2024/02/11 00:20:27;;;;;;;2.25;1.70;;;;;;;14.30;62.26;97903.47;4226094;33;33404;-80
2024/02/11 00:22:55;;;;;;;2.10;1.55;;;;;;;14.26;62.58;97904.72;4235418;33;33627;-80
2024/02/11 00:25:24;;;;;;;0.52;0.52;;;;;;;14.23;62.70;97897.00;4215588;33;33636;-80
2024/02/11 00:27:53;;;;;;;2.28;1.35;;;;;;;14.39;61.93;97901.81;4225387;33;34449;-80
2024/02/11 00:30:23;;;;;;;7.37;2.50;;;;;;;14.53;61.78;97892.63;4238811;33;33686;-80
2024/02/11 00:32:56;;;;;;;1.00;1.00;;;;;;;14.70;61.38;97891.94;4226018;33;32913;-80
2024/02/11 00:35:24;;;;;;;0.73;0.60;;;;;;;14.64;61.56;97889.00;4236049;33;35956;-80
2024/02/11 00:37:53;;;;;;;1.00;0.90;;;;;;;14.71;61.06;97890.09;4213741;33;33682;-80
2024/02/11 00:40:21;;;;;;;0.68;0.68;;;;;;;14.37;61.78;97887.81;4203827;33;33972;-80
2024/02/11 00:42:51;;;;;;;1.75;1.40;;;;;;;14.05;63.03;97878.28;4225661;33;34361;-80
2024/02/11 00:45:19;;;;;;;1.45;0.82;;;;;;;14.27;62.53;97887.78;4213558;33;33877;-81
2024/02/11 00:47:47;;;;;;;2.10;1.10;;;;;;;14.38;62.44;97880.69;4204885;33;32873;-80
2024/02/11 00:50:15;;;;;;;1.27;0.70;;;;;;;14.40;62.42;97882.25;4219050;33;33896;-80
2024/02/11 00:52:48;;;;;;;0.55;0.55;;;;;;;14.39;61.97;97885.88;4202415;33;33522;-80
2024/02/11 00:55:21;;;;;;;1.27;0.75;;;;;;;14.38;62.34;97881.53;4227854;33;33725;-80
2024/02/11 00:57:50;;;;;;;0.80;0.80;;;;;;;14.20;63.28;97868.09;4203708;33;32733;-80
2024/02/11 01:00:18;;;;;;;0.35;0.35;;;;;;;14.17;62.98;97875.50;4222945;33;32695;-80
2024/02/11 01:02:46;;;;;;;0.57;0.57;;;;;;;14.20;63.55;97864.59;4200952;33;32128;-81
2024/02/11 01:05:15;;;;;;;0.57;0.57;;;;;;;14.15;63.57;97864.16;4225942;33;33678;-80
2024/02/11 01:07:44;;;;;;;0.85;0.77;;;;;;;14.45;62.65;97858.75;4195316;33;33278;-80
2024/02/11 01:10:13;;;;;;;0.82;0.82;;;;;;;14.15;63.72;97861.50;4226351;33;34646;-80
2024/02/11 01:12:42;;;;;;;0.20;0.20;;;;;;;14.07;64.03;97855.06;4201595;33;33962;-80
2024/02/11 01:15:16;;;;;;;0.60;0.60;;;;;;;14.25;62.63;97857.06;4202668;33;33502;-80
2024/02/11 01:17:44;;;;;;;0.17;0.17;;;;;;;14.07;63.59;97851.59;4211790;33;33201;-81
2024/02/11 01:20:14;;;;;;;3.03;1.12;;;;;;;14.01;63.75;97850.31;4201320;33;32624;-80
2024/02/11 01:22:43;;;;;;;0.80;0.80;;;;;;;14.02;63.61;97853.81;4200665;33;33237;-80
2024/02/11 01:25:11;;;;;;;0.10;0.10;;;;;;;13.90;63.94;97847.75;4199724;33;32247;-80
2024/02/11 01:27:39;;;;;;;0.68;0.30;;;;;;;13.95;63.69;97855.31;4211581;33;34494;-80
2024/02/11 01:30:08;;;;;;;0.75;0.52;;;;;;;14.15;62.79;97841.12;4198636;34;34090;-80
2024/02/11 01:32:37;;;;;;;6.93;1.27;;;;;;;13.69;64.12;97849.66;4217375;33;33447;-81
2024/02/11 01:35:07;;;;;;;1.02;0.65;;;;;;;14.02;63.19;97841.38;4225700;33;33358;-80
2024/02/11 01:37:40;;;;;;;0.35;0.35;;;;;;;13.65;63.93;97843.78;4209653;33;34033;-80
2024/02/11 01:40:19;;;;;;;0.70;0.15;;;;;;;13.85;63.51;97839.38;4211517;33;34317;-80
2024/02/11 01:42:47;;;;;;;0.73;0.73;;;;;;;13.87;63.61;97829.47;4224309;33;33635;-81
2024/02/11 01:45:17;;;;;;;8.68;1.95;;;;;;;13.88;63.10;97831.16;4214568;33;33766;-80
2024/02/11 01:47:45;;;;;;;2.30;0.73;;;;;;;13.90;63.18;97831.84;4227052;33;33033;-80
2024/02/11 01:50:16;;;;;;;0.47;0.20;;;;;;;13.79;63.64;97819.53;4202231;34;34058;-81
2024/02/11 01:52:47;;;;;;;0.20;0.20;;;;;;;13.85;63.38;97818.16;4235060;33;34097;-80
2024/02/11 01:55:18;;;;;;;1.12;0.80;;;;;;;13.66;64.03;97820.75;4202438;33;33940;-80
2024/02/11 01:57:47;;;;;;;0.10;0.08;;;;;;;13.68;63.84;97810.84;4215579;33;33366;-80
2024/02/11 02:00:16;;;;;;;0.32;0.32;;;;;;;13.66;63.95;97810.12;4226005;33;33529;-80
2024/02/11 02:02:45;;;;;;;1.23;0.45;;;;;;;13.69;63.61;97796.63;4203872;33;34272;-80
2024/02/11 02:05:14;;;;;;;0.35;0.30;;;;;;;13.89;63.20;97794.84;4221817;33;32779;-80
2024/02/11 02:07:42;;;;;;;0.47;0.47;;;;;;;14.19;62.07;97788.59;4200276;33;33936;-80
2024/02/11 02:10:10;;;;;;;0.52;0.40;;;;;;;13.78;63.02;97782.53;4224015;33;33004;-80
2024/02/11 02:12:40;;;;;;;0.30;0.28;;;;;;;13.87;62.89;97783.53;4202623;33;32870;-80
2024/02/11 02:15:08;;;;;;;0.52;0.52;;;;;;;13.76;62.68;97779.16;4235242;33;33625;-80
2024/02/11 02:17:37;;;;;;;0.90;0.40;;;;;;;13.69;63.22;97781.53;4214788;33;33917;-80
2024/02/11 02:20:06;;;;;;;0.30;0.30;;;;;;;13.80;62.78;97783.22;4210699;33;32553;-80
2024/02/11 02:22:34;;;;;;;0.43;0.30;;;;;;;13.67;63.17;97766.72;4214538;33;34333;-80
2024/02/11 02:25:04;;;;;;;0.10;0.10;;;;;;;13.64;63.26;97767.84;4203873;33;35187;-80
2024/02/11 02:27:41;;;;;;;0.00;0.00;;;;;;;13.96;61.90;97767.63;4211867;33;33495;-80
2024/02/11 02:30:10;;;;;;;0.60;0.52;;;;;;;13.84;61.52;97764.25;4212622;33;33368;-80
2024/02/11 02:32:37;;;;;;;0.60;0.60;;;;;;;13.73;61.54;97758.25;4235821;33;33973;-80
2024/02/11 02:35:05;;;;;;;1.30;0.37;;;;;;;13.39;63.16;97765.66;4209892;33;32856;-81
2024/02/11 02:37:33;;;;;;;1.70;1.60;;;;;;;13.72;62.24;97757.41;4200612;33;33594;-81
2024/02/11 02:40:01;;;;;;;0.17;0.17;;;;;;;13.71;61.83;97757.53;4224773;33;34754;-81
2024/02/11 02:42:29;;;;;;;2.05;1.37;;;;;;;13.60;61.88;97752.34;4199641;33;33662;-81
2024/02/11 02:44:57;;;;;;;0.15;0.15;;;;;;;13.42;62.07;97755.63;4211595;33;33998;-81
2024/02/11 02:47:25;;;;;;;2.87;1.52;;;;;;;13.69;61.52;97751.53;4195294;33;33797;-81
2024/02/11 02:49:53;;;;;;;1.20;0.60;;;;;;;13.64;61.06;97740.50;4225340;33;34074;-81
2024/02/11 02:52:21;;;;;;;0.62;0.62;;;;;;;13.65;61.36;97742.16;4212515;33;32484;-81
2024/02/11 02:54:48;;;;;;;0.43;0.43;;;;;;;13.43;61.94;97738.75;4188743;33;32646;-81
2024/02/11 02:57:16;;;;;;;0.17;0.17;;;;;;;13.70;61.06;97731.97;4200985;33;33733;-82
2024/02/11 02:59:45;;;;;;;2.17;0.93;;;;;;;13.65;60.69;97728.91;4200934;34;32776;-81
2024/02/11 03:02:13;;;;;;;0.30;0.28;;;;;;;13.75;60.42;97721.81;4212184;33;33968;-81
2024/02/11 03:04:41;;;;;;;2.78;0.73;;;;;;;13.78;60.46;97726.84;4223273;33;31676;-81
2024/02/11 03:07:10;;;;;;;0.98;0.50;;;;;;;13.75;60.22;97732.41;4225888;33;33239;-81
2024/02/11 03:09:38;;;;;;;10.90;1.17;;;;;;;13.73;60.63;97731.72;4213221;33;34563;-81
2024/02/11 03:12:06;;;;;;;0.52;0.52;;;;;;;13.75;60.53;97727.09;4224557;33;32192;-81
2024/02/11 03:14:34;;;;;;;0.05;0.05;;;;;;;13.54;61.13;97730.69;4227508;33;33944;-81
2024/02/11 03:17:02;;;;;;;0.45;0.30;;;;;;;13.64;60.79;97724.59;4212498;33;33737;-81
2024/02/11 03:19:30;;;;;;;0.17;0.17;;;;;;;14.04;59.56;97727.13;4224864;33;34587;-81
2024/02/11 03:21:58;;;;;;;0.20;0.20;;;;;;;13.77;59.71;97719.88;4211596;33;33220;-81
2024/02/11 03:24:26;;;;;;;3.87;0.40;;;;;;;13.69;60.55;97709.09;4215602;33;32526;-81
2024/02/11 03:26:53;;;;;;;0.20;0.20;;;;;;;13.78;60.25;97717.06;4213677;33;34490;-81
2024/02/11 03:29:21;;;;;;;0.30;0.30;;;;;;;13.56;60.65;97707.53;4217977;33;33787;-79
2024/02/11 03:31:49;;;;;;;0.85;0.40;;;;;;;13.70;59.94;97718.72;4215007;33;34101;-79
2024/02/11 03:34:18;;;;;;;0.13;0.13;;;;;;;13.51;60.97;97720.34;4223498;33;34576;-80
2024/02/11 03:36:46;;;;;;;0.05;0.05;;;;;;;13.50;60.39;97720.50;4226150;33;33636;-81
2024/02/11 03:39:15;;;;;;;1.40;1.30;;;;;;;13.55;60.08;97721.78;4211308;33;34536;-81
2024/02/11 03:41:43;;;;;;;0.10;0.10;;;;;;;13.67;59.24;97716.34;4204221;33;33699;-80
2024/02/11 03:44:12;;;;;;;14.13;1.48;;;;;;;13.54;59.85;97709.50;4199544;33;34964;-80
2024/02/11 03:46:39;;;;;;;0.03;0.03;;;;;;;13.58;59.92;97705.59;4211194;33;34431;-80
2024/02/11 03:49:08;;;;;;;0.20;0.20;;;;;;;13.60;60.45;97707.25;4223484;33;33945;-80
2024/02/11 03:51:36;;;;;;;0.32;0.30;;;;;;;13.59;61.11;97695.81;4210510;33;32801;-80
2024/02/11 03:54:03;;;;;;;0.50;0.50;;;;;;;13.45;62.02;97705.00;4212394;33;34619;-80
2024/02/11 03:56:34;;;;;;;0.30;0.30;;;;;;;13.42;62.07;97688.53;4223740;33;33012;-81
2024/02/11 03:59:03;;;;;;;0.43;0.43;;;;;;;13.62;61.57;97692.03;4225331;33;34901;-80
2024/02/11 04:01:33;;;;;;;2.53;1.85;;;;;;;13.46;61.84;97689.94;4211863;33;34043;-80
2024/02/11 04:04:03;;;;;;;3.50;1.12;;;;;;;13.20;62.86;97681.63;4224631;33;33931;-80
2024/02/11 04:06:31;;;;;;;0.13;0.13;;;;;;;13.41;62.60;97668.31;4205701;33;31221;-80
2024/02/11 04:09:00;;;;;;;5.85;1.55;;;;;;;13.44;62.29;97663.56;4199170;33;34432;-80
2024/02/11 04:11:29;;;;;;;0.03;0.03;;;;;;;13.37;62.82;97659.78;4236409;33;34204;-80
2024/02/11 04:13:58;;;;;;;0.15;0.15;;;;;;;13.47;62.85;97662.44;4213978;33;32729;-80
2024/02/11 04:16:26;;;;;;;2.45;0.55;;;;;;;13.41;62.61;97655.88;4225076;33;33351;-80
2024/02/11 04:18:56;;;;;;;1.55;1.37;;;;;;;13.44;63.38;97655.63;4198668;33;34629;-80
2024/02/11 04:21:24;;;;;;;2.17;0.98;;;;;;;13.62;62.72;97650.44;4212496;33;33384;-80
2024/02/11 04:23:52;;;;;;;0.10;0.10;;;;;;;13.31;64.03;97647.06;4212144;33;33170;-80
2024/02/11 04:26:20;;;;;;;0.37;0.37;;;;;;;13.81;61.93;97646.97;4223561;33;34205;-80
2024/02/11 04:28:49;;;;;;;0.88;0.88;;;;;;;13.57;62.59;97642.91;4236181;33;34849;-80
2024/02/11 04:31:19;;;;;;;0.10;0.10;;;;;;;13.18;64.63;97651.75;4232293;33;33626;-81
2024/02/11 04:33:47;;;;;;;1.58;1.48;;;;;;;13.50;63.21;97649.75;4221973;33;32773;-80
2024/02/11 04:36:18;;;;;;;9.23;1.00;;;;;;;13.26;63.39;97644.84;4233649;33;33583;-80
2024/02/11 04:38:47;;;;;;;3.62;1.37;;;;;;;13.41;63.21;97644.44;4225075;33;33624;-80
2024/02/11 04:41:17;;;;;;;0.68;0.37;;;;;;;13.57;62.93;97658.81;4225985;33;33228;-80
2024/02/11 04:43:48;;;;;;;0.47;0.47;;;;;;;13.40;63.59;97662.16;4202192;33;34365;-80
2024/02/11 04:46:19;;;;;;;0.20;0.20;;;;;;;13.49;63.30;97657.84;4222511;33;33078;-79
2024/02/11 04:48:48;;;;;;;0.17;0.17;;;;;;;13.40;64.09;97664.81;4201819;33;34794;-80
2024/02/11 04:51:17;;;;;;;0.10;0.10;;;;;;;13.54;63.20;97659.13;4223767;33;35455;-80
2024/02/11 04:53:46;;;;;;;0.22;0.22;;;;;;;13.64;62.28;97668.91;4205507;33;33143;-80
2024/02/11 04:56:17;;;;;;;1.12;0.85;;;;;;;13.65;62.27;97673.22;4191759;33;32773;-80
2024/02/11 04:58:46;;;;;;;0.90;0.85;;;;;;;13.33;63.07;97668.97;4225903;33;34099;-80
2024/02/11 05:01:13;;;;;;;0.65;0.65;;;;;;;13.55;62.78;97675.84;4216461;33;34391;-80
2024/02/11 05:03:44;;;;;;;0.20;0.20;;;;;;;13.53;63.03;97673.34;4226618;33;32567;-80
2024/02/11 05:06:18;;;;;;;1.13;0.87;;;;;;;13.36;64.05;97671.34;4215969;33;34061;-80
2024/02/11 05:08:47;;;;;;;0.75;0.45;;;;;;;13.64;62.72;97677.69;4201609;33;34092;-80
2024/02/11 05:11:14;;;;;;;0.30;0.30;;;;;;;13.77;62.04;97677.44;4202918;33;34020;-80
2024/02/11 05:13:44;;;;;;;0.40;0.40;;;;;;;13.54;62.93;97676.84;4208085;33;33324;-80
2024/02/11 05:16:14;;;;;;;0.52;0.52;;;;;;;13.65;62.95;97667.91;4212334;33;32532;-80
2024/02/11 05:18:43;;;;;;;1.02;0.73;;;;;;;13.67;62.22;97665.94;4224628;33;34790;-80
2024/02/11 05:21:10;;;;;;;0.28;0.28;;;;;;;13.53;63.12;97670.69;4225962;33;34245;-80
2024/02/11 05:23:38;;;;;;;0.30;0.30;;;;;;;13.93;60.90;97667.09;4224659;33;33571;-80
2024/02/11 05:26:09;;;;;;;0.15;0.10;;;;;;;13.68;61.70;97667.66;4225635;33;33237;-80
2024/02/11 05:28:37;;;;;;;0.10;0.10;;;;;;;13.56;62.24;97675.72;4238361;33;33725;-80
2024/02/11 05:31:07;;;;;;;0.28;0.28;;;;;;;13.62;61.96;97665.53;4215579;33;33600;-80
2024/02/11 05:33:35;;;;;;;0.08;0.05;;;;;;;13.39;62.94;97663.16;4210576;33;34483;-80
2024/02/11 05:36:08;;;;;;;1.45;0.98;;;;;;;13.60;62.38;97670.16;4211789;33;32416;-80
2024/02/11 05:38:39;;;;;;;0.40;0.40;;;;;;;13.49;62.53;97663.16;4222903;33;32282;-80
2024/02/11 05:41:09;;;;;;;1.37;0.47;;;;;;;13.78;61.51;97658.72;4223791;33;33701;-80
2024/02/11 05:43:38;;;;;;;0.20;0.10;;;;;;;13.60;62.00;97662.19;4227017;33;34271;-80
2024/02/11 05:46:07;;;;;;;1.90;0.75;;;;;;;13.06;63.69;97667.78;4212315;34;34672;-80
2024/02/11 05:48:35;;;;;;;1.37;0.70;;;;;;;13.26;62.01;97667.84;4226549;33;33470;-80
2024/02/11 05:51:04;;;;;;;0.30;0.30;;;;;;;13.35;61.77;97667.03;4236308;33;33958;-80
2024/02/11 05:53:32;;;;;;;0.35;0.35;;;;;;;13.27;62.26;97664.22;4203360;33;32612;-80
2024/02/11 05:56:00;;;;;;;0.28;0.28;;;;;;;13.23;62.28;97678.72;4210028;33;33462;-80
2024/02/11 05:58:28;;;;;;;1.60;1.17;;;;;;;13.02;62.72;97671.66;4212601;33;32708;-80
2024/02/11 06:00:56;;;;;;;1.08;0.73;;;;;;;13.11;63.43;97671.81;4213388;33;33874;-80
2024/02/11 06:03:24;;;;;;;0.70;0.70;;;;;;;13.14;62.61;97668.87;4189357;33;32861;-80
2024/02/11 06:05:52;;;;;;;0.65;0.65;;;;;;;13.14;63.01;97663.59;4203397;33;34166;-80
2024/02/11 06:08:21;;;;;;;0.08;0.08;;;;;;;13.45;61.73;97667.88;4211781;33;34064;-80
2024/02/11 06:10:50;;;;;;;0.28;0.28;;;;;;;13.17;62.51;97669.47;4237513;33;34340;-80
2024/02/11 06:13:19;;;;;;;0.52;0.52;;;;;;;13.00;63.53;97672.75;4227028;33;34542;-80
2024/02/11 06:15:47;;;;;;;0.75;0.75;;;;;;;13.02;63.31;97668.16;4217126;33;33290;-80
2024/02/11 06:18:17;;;;;;;0.90;0.90;;;;;;;13.14;62.79;97664.44;4215017;33;33581;-80
2024/02/11 06:20:46;;;;;;;3.28;1.95;;;;;;;13.16;62.95;97673.09;4210011;34;33264;-80
2024/02/11 06:23:13;;;;;;;0.88;0.88;;;;;;;12.79;63.89;97667.53;4212720;33;34547;-80
2024/02/11 06:25:42;;;;;;;0.45;0.45;;;;;;;12.64;65.05;97666.19;4194730;33;32777;-81
2024/02/11 06:28:10;;;;;;;0.32;0.32;;;;;;;12.83;63.99;97661.00;4215262;33;34041;-80
2024/02/11 06:30:38;;;;;;;0.30;0.30;;;;;;;12.91;63.94;97661.13;4211696;33;32417;-80
2024/02/11 06:33:09;;;;;;;0.32;0.32;;;;;;;12.84;64.67;97667.97;4211186;33;32830;-80
2024/02/11 06:35:39;;;;;;;0.57;0.40;;;;;;;12.84;64.66;97672.41;4202246;33;33980;-80
2024/02/11 06:38:07;;;;;;;1.40;1.30;;;;;;;13.14;64.01;97667.06;4236406;33;33825;-80
2024/02/11 06:40:35;;;;;;;5.50;1.58;;;;;;;12.92;64.63;97669.94;4212612;33;34380;-80
2024/02/11 06:43:10;;;;;;;0.30;0.30;;;;;;;12.86;65.29;97667.81;4212319;33;33524;-80
2024/02/11 06:45:45;;;;;;;0.62;0.55;;;;;;;12.88;64.88;97671.19;4205084;33;32876;-80
2024/02/11 06:48:15;;;;;;;1.62;0.50;;;;;;;12.90;64.78;97675.34;4217968;33;34568;-80
2024/02/11 06:50:43;;;;;;;2.50;0.52;;;;;;;12.65;65.68;97683.75;4217288;33;33112;-80
2024/02/11 06:53:11;;;;;;;0.70;0.30;;;;;;;12.69;65.92;97682.53;4202722;33;33904;-80
2024/02/11 06:55:40;;;;;;;4.80;1.35;;;;;;;12.56;66.22;97686.22;4225396;33;33953;-80
2024/02/11 06:58:09;;;;;;;1.02;1.02;;;;;;;12.82;65.25;97676.03;4217943;33;35511;-81
2024/02/11 07:00:37;;;;;;;0.20;0.20;;;;;;;12.29;67.63;97677.97;4214191;33;33329;-81
2024/02/11 07:03:05;;;;;;;2.03;0.55;;;;;;;12.49;66.29;97685.06;4223325;33;33701;-80
2024/02/11 07:05:33;;;;;;;0.20;0.20;;;;;;;12.62;66.03;97681.38;4221781;33;33517;-80
2024/02/11 07:08:02;;;;;;;0.25;0.25;;;;;;;12.47;67.09;97681.69;4223973;33;34461;-80
2024/02/11 07:10:30;;;;;;;0.88;0.88;;;;;;;12.87;65.70;97685.41;4196592;33;33453;-81
2024/02/11 07:12:58;;;;;;;0.45;0.45;;;;;;;12.78;66.19;97689.69;4192521;33;33637;-80
2024/02/11 07:15:26;;;;;;;0.32;0.32;;;;;;;12.56;66.70;97696.81;4205399;33;35684;-80
2024/02/11 07:17:54;;;;;;;2.10;1.00;;;;;;;12.58;67.25;97694.03;4203787;33;34480;-80
2024/02/11 07:20:22;;;;;;;0.25;0.25;;;;;;;12.57;67.37;97693.19;4203127;33;33675;-80
2024/02/11 07:22:50;;;;;;;1.75;0.55;;;;;;;12.61;67.11;97687.62;4200692;33;33541;-81
2024/02/11 07:25:20;;;;;;;0.45;0.45;;;;;;;12.35;68.51;97688.06;4216873;33;33949;-81
2024/02/11 07:27:48;;;;;;;1.35;0.90;;;;;;;12.62;67.77;97690.13;4227656;33;34328;-81
2024/02/11 07:30:16;;;;;;;1.85;1.20;;;;;;;12.59;67.34;97695.72;4227491;33;33053;-80
2024/02/11 07:32:44;;;;;;;0.20;0.20;;;;;;;13.06;65.96;97688.97;4205149;33;33041;-81
2024/02/11 07:35:15;;;;;;;0.35;0.35;;;;;;;13.21;65.60;97691.25;4212963;33;33478;-81
2024/02/11 07:37:44;;;;;;;0.28;0.28;;;;;;;12.74;66.78;97685.63;4216266;33;34127;-81
2024/02/11 07:40:14;;;;;;;0.90;0.47;;;;;;;12.97;66.44;97687.12;4212305;33;33518;-81
2024/02/11 07:42:44;;;;;;;2.80;1.75;;;;;;;12.92;66.43;97691.97;4210602;33;34099;-81
2024/02/11 07:45:14;;;;;;;0.15;0.15;;;;;;;12.99;66.81;97687.81;4225419;33;34476;-81
2024/02/11 07:47:46;;;;;;;0.65;0.52;;;;;;;12.92;67.17;97691.97;4204331;33;34182;-81
2024/02/11 07:50:14;;;;;;;0.15;0.15;;;;;;;12.70;67.59;97692.97;4213519;33;33131;-82
2024/02/11 07:52:43;;;;;;;0.13;0.13;;;;;;;12.68;68.30;97696.75;4224177;33;33084;-82
2024/02/11 07:55:12;;;;;;;0.93;0.80;;;;;;;12.75;67.58;97700.53;4204189;33;33905;-82
2024/02/11 07:57:40;;;;;;;0.30;0.22;;;;;;;12.73;67.87;97697.19;4202675;33;32891;-82
2024/02/11 08:00:08;;;;;;;4.18;3.25;;;;;;;12.89;67.34;97688.75;4203480;33;31697;-82
2024/02/11 08:02:36;;;;;;;1.00;1.00;;;;;;;12.92;67.02;97691.13;4200949;33;32854;-82
2024/02/11 08:05:04;;;;;;;0.20;0.20;;;;;;;12.72;67.76;97687.53;4191354;33;33870;-82
2024/02/11 08:07:31;;;;;;;0.20;0.20;;;;;;;12.99;67.04;97682.50;4224350;33;32570;-83
2024/02/11 08:10:00;;;;;;;0.50;0.50;;;;;;;12.83;67.58;97679.53;4188887;33;32444;-82
2024/02/11 08:12:28;;;;;;;0.57;0.57;;;;;;;12.64;68.42;97695.31;4218406;33;34064;-82
2024/02/11 08:14:55;;;;;;;1.02;0.98;;;;;;;12.77;67.85;97685.34;4212864;33;32620;-82
2024/02/11 08:17:27;;;;;;;1.65;1.55;;;;;;;12.71;68.67;97685.88;4228361;33;35935;-82
2024/02/11 08:19:55;;;;;;;0.82;0.82;;;;;;;12.99;67.56;97693.09;4226123;33;33290;-82
2024/02/11 08:22:24;;;;;;;0.00;0.00;;;;;;;12.93;68.11;97687.50;4198069;33;32909;-81
2024/02/11 08:24:52;;;;;;;0.20;0.20;;;;;;;13.07;67.17;97687.97;4202148;33;33101;-81
2024/02/11 08:27:23;;;;;;;1.33;1.23;;;;;;;12.93;67.80;97683.06;4204114;33;34189;-80
2024/02/11 08:29:52;;;;;;;0.35;0.32;;;;;;;13.14;67.08;97684.78;4225698;33;33338;-81
2024/02/11 08:32:20;;;;;;;0.10;0.10;;;;;;;13.04;67.05;97685.59;4223821;33;34285;-81
2024/02/11 08:34:49;;;;;;;0.62;0.62;;;;;;;12.99;67.02;97681.69;4203891;33;34133;-81
2024/02/11 08:37:17;;;;;;;0.82;0.82;;;;;;;12.92;67.70;97686.69;4218196;33;34003;-80
2024/02/11 08:39:45;;;;;;;0.40;0.40;;;;;;;13.08;67.19;97681.72;4213328;33;34387;-81
2024/02/11 08:42:13;;;;;;;0.52;0.50;;;;;;;12.83;67.86;97682.19;4204241;33;34510;-81
2024/02/11 08:44:41;;;;;;;0.10;0.03;;;;;;;13.00;67.74;97676.22;4213821;33;33447;-81
2024/02/11 08:47:09;;;;;;;0.93;0.73;;;;;;;13.04;67.71;97680.28;4215398;33;33664;-81
2024/02/11 08:49:37;;;;;;;0.32;0.32;;;;;;;13.21;67.24;97680.62;4219068;33;31939;-81
2024/02/11 08:52:06;;;;;;;1.45;1.35;;;;;;;13.21;67.54;97673.53;4213563;33;33740;-81
2024/02/11 08:54:34;;;;;;;2.97;1.98;;;;;;;13.49;66.08;97679.06;4198002;33;32535;-81
2024/02/11 08:57:02;;;;;;;2.83;1.67;;;;;;;13.67;65.51;97679.22;4214443;33;36700;-81
2024/02/11 08:59:30;;;;;;;0.43;0.30;;;;;;;13.77;65.45;97677.44;4200641;33;33353;-81
2024/02/11 09:01:59;;;;;;;7.82;1.33;;;;;;;13.56;65.70;97683.66;4238169;33;34330;-81
2024/02/11 09:04:28;;;;;;;0.95;0.57;;;;;;;13.42;66.55;97689.34;4217538;33;35097;-84
2024/02/11 09:06:57;;;;;;;1.67;1.20;;;;;;;13.54;66.50;97688.28;4212851;33;33429;-81
2024/02/11 09:09:29;;;;;;;1.67;1.02;;;;;;;13.45;66.85;97694.41;4207834;33;32093;-82
2024/02/11 09:11:57;;;;;;;0.80;0.80;;;;;;;13.75;66.02;97696.09;4204328;33;33117;-86
2024/02/11 09:14:27;;;;;;;1.20;1.15;;;;;;;13.55;67.07;97694.41;4209680;33;33116;-83
2024/02/11 09:17:02;;;;;;;1.77;1.20;;;;;;;13.65;66.72;97694.44;4201849;33;35539;-83
2024/02/11 09:19:31;;;;;;;2.87;1.77;;;;;;;13.51;67.61;97693.84;4214691;33;33140;-83
2024/02/11 09:21:59;;;;;;;0.45;0.45;;;;;;;13.58;67.25;97705.59;4198908;33;33905;-83
2024/02/11 09:24:27;;;;;;;2.95;2.10;;;;;;;13.71;67.26;97704.47;4220926;33;33662;-83
2024/02/11 09:26:55;;;;;;;0.35;0.35;;;;;;;13.21;68.93;97707.13;4213410;33;32151;-83
2024/02/11 09:29:22;;;;;;;2.20;0.98;;;;;;;13.35;68.17;97711.25;4211862;33;33694;-82
2024/02/11 09:31:50;;;;;;;0.68;0.68;;;;;;;13.37;68.40;97719.91;4190362;33;32599;-83
2024/02/11 09:34:21;;;;;;;0.68;0.60;;;;;;;13.03;69.32;97718.38;4200286;33;33613;-83
2024/02/11 09:36:49;;;;;;;1.75;1.35;;;;;;;13.36;68.38;97716.41;4211629;33;33417;-83
2024/02/11 09:39:19;;;;;;;0.55;0.55;;;;;;;13.11;69.35;97717.72;4223558;33;33623;-83
2024/02/11 09:41:47;;;;;;;2.28;0.43;;;;;;;13.11;69.30;97715.06;4199425;33;33570;-83
2024/02/11 09:44:18;;;;;;;0.47;0.47;;;;;;;12.98;69.97;97728.53;4200266;33;32698;-83
2024/02/11 09:46:50;;;;;;;2.62;0.52;;;;;;;13.07;70.28;97717.13;4224606;33;34290;-83
2024/02/11 09:49:20;;;;;;;1.80;1.65;;;;;;;13.36;69.74;97726.19;4194774;33;33304;-83
2024/02/11 09:51:50;;;;;;;4.25;2.72;;;;;;;13.46;69.19;97724.41;4235219;33;32696;-83
2024/02/11 09:54:18;;;;;;;1.60;0.37;;;;;;;13.60;68.45;97742.56;4203737;33;33143;-83
2024/02/11 09:56:46;;;;;;;1.15;1.08;;;;;;;13.35;69.42;97735.13;4221777;33;32321;-84
2024/02/11 09:59:14;;;;;;;1.87;1.12;;;;;;;13.60;69.29;97745.22;4210533;33;31998;-83
2024/02/11 10:01:42;;;;;;;6.25;2.05;;;;;;;13.78;68.03;97729.50;4223375;33;35215;-83
2024/02/11 10:04:15;;;;;;;1.15;1.08;;;;;;;13.70;68.63;97738.13;4201675;33;33201;-84
2024/02/11 10:06:43;;;;;;;1.20;1.10;;;;;;;13.83;68.32;97729.91;4223654;33;34214;-81
2024/02/11 10:09:12;;;;;;;0.43;0.43;;;;;;;13.72;67.85;97728.22;4214602;33;33237;-83
2024/02/11 10:11:40;;;;;;;1.55;1.45;;;;;;;13.53;68.09;97733.47;4210494;33;33191;-83
2024/02/11 10:14:13;;;;;;;2.10;0.85;;;;;;;13.41;68.61;97724.81;4203452;33;34009;-83
2024/02/11 10:16:41;;;;;;;2.10;1.35;;;;;;;13.76;67.52;97718.16;4214618;33;34379;-83
2024/02/11 10:19:09;;;;;;;0.50;0.50;;;;;;;13.99;66.81;97721.41;4217510;33;32161;-83
2024/02/11 10:21:37;;;;;;;1.50;1.40;;;;;;;13.90;67.18;97717.75;4223455;33;33745;-82
2024/02/11 10:24:06;;;;;;;0.73;0.73;;;;;;;13.92;66.73;97717.66;4220810;33;33932;-82
2024/02/11 10:26:35;;;;;;;1.02;1.02;;;;;;;13.84;66.49;97710.38;4213687;33;34258;-82
2024/02/11 10:29:03;;;;;;;1.00;1.00;;;;;;;14.18;65.71;97710.78;4215920;33;33245;-82
2024/02/11 10:31:31;;;;;;;0.57;0.50;;;;;;;13.69;67.81;97722.34;4201079;33;33650;-83
2024/02/11 10:33:59;;;;;;;1.35;1.25;;;;;;;14.03;67.17;97713.03;4223568;33;34793;-82
2024/02/11 10:36:27;;;;;;;1.37;0.60;;;;;;;14.07;67.40;97706.47;4223760;33;34871;-83
2024/02/11 10:38:56;;;;;;;0.65;0.65;;;;;;;14.06;66.87;97718.06;4213333;33;34431;-83
2024/02/11 10:41:26;;;;;;;5.47;1.23;;;;;;;13.95;68.30;97712.88;4198642;33;33544;-82
2024/02/11 10:43:54;;;;;;;2.97;1.12;;;;;;;14.25;66.59;97700.47;4198510;33;33009;-82
2024/02/11 10:46:23;;;;;;;3.72;1.45;;;;;;;14.22;67.73;97704.22;4224569;33;34601;-82
2024/02/11 10:48:52;;;;;;;1.48;1.30;;;;;;;14.37;66.99;97699.31;4211445;33;31351;-83
2024/02/11 10:51:31;;;;;;;0.93;0.93;;;;;;;14.46;67.59;97694.97;4199251;33;34643;-82
2024/02/11 10:54:02;;;;;;;1.35;1.25;;;;;;;14.23;68.66;97697.94;4200745;33;33561;-83
2024/02/11 10:56:33;;;;;;;1.35;1.33;;;;;;;14.37;67.80;97704.63;4200776;33;33539;-83
2024/02/11 10:59:08;;;;;;;6.25;2.42;;;;;;;14.24;68.24;97709.38;4214694;33;32213;-83
2024/02/11 11:01:38;;;;;;;1.60;1.25;;;;;;;14.22;68.10;97700.72;4224979;33;32137;-82
2024/02/11 11:04:17;;;;;;;1.75;1.37;;;;;;;13.90;69.55;97708.97;4211763;33;33979;-83
2024/02/11 11:06:49;;;;;;;2.20;0.98;;;;;;;13.69;69.29;97703.78;4201232;33;33485;-83
2024/02/11 11:09:18;;;;;;;2.22;1.62;;;;;;;13.93;67.82;97700.75;4212501;33;33924;-83
2024/02/11 11:11:46;;;;;;;1.77;1.67;;;;;;;14.13;67.59;97696.25;4190651;33;32844;-83
2024/02/11 11:14:18;;;;;;;0.73;0.73;;;;;;;14.14;67.49;97695.28;4189533;33;33259;-83
2024/02/11 11:16:46;;;;;;;0.60;0.60;;;;;;;14.36;66.63;97692.31;4212793;33;34106;-83
2024/02/11 11:19:15;;;;;;;0.50;0.50;;;;;;;13.75;68.70;97696.09;4221884;33;32877;-83
2024/02/11 11:21:50;;;;;;;3.12;0.47;;;;;;;13.67;69.53;97697.78;4215032;33;36591;-83
2024/02/11 11:24:18;;;;;;;1.08;1.08;;;;;;;14.03;67.39;97688.31;4215427;33;31964;-83
2024/02/11 11:26:55;;;;;;;1.10;0.80;;;;;;;13.78;67.85;97689.72;4201627;33;33073;-83
2024/02/11 11:29:27;;;;;;;3.12;1.98;;;;;;;13.88;68.29;97690.53;4209330;33;33453;-83
2024/02/11 11:32:01;;;;;;;2.58;0.95;;;;;;;14.28;66.62;97692.19;4199004;33;35768;-84
2024/02/11 11:34:33;;;;;;;8.23;1.90;;;;;;;14.53;66.24;97690.81;4215062;33;33625;-83
2024/02/11 11:37:13;;;;;;;0.65;0.65;;;;;;;14.51;66.61;97687.44;4203660;33;33808;-84
2024/02/11 11:39:45;;;;;;;0.73;0.73;;;;;;;14.60;66.50;97684.75;4225409;33;33301;-84
2024/02/11 11:42:14;;;;;;;0.80;0.80;;;;;;;14.56;66.52;97680.72;4202284;33;34083;-84